createdAt,value
2023-10-23T00:00:22.287Z,19.77
2023-10-23T00:00:54.297Z,19.00
2023-10-23T00:01:38.279Z,18.67
2023-10-23T00:02:10.324Z,18.70
2023-10-23T00:02:42.287Z,19.20
2023-10-23T00:03:14.422Z,18.43
2023-10-23T00:03:50.326Z,18.97
2023-10-23T00:04:22.850Z,18.93
2023-10-23T00:04:55.078Z,19.17
2023-10-23T00:05:27.179Z,19.87
2023-10-23T00:05:59.335Z,21.73
2023-10-23T00:06:31.279Z,21.87
2023-10-23T00:07:03.205Z,21.60
2023-10-23T00:07:35.229Z,21.13
2023-10-23T00:08:07.197Z,20.60
2023-10-23T00:08:39.105Z,21.13
2023-10-23T00:09:11.021Z,22.30
2023-10-23T00:09:42.989Z,22.10
2023-10-23T00:10:14.944Z,22.07
2023-10-23T00:10:46.877Z,22.17
2023-10-23T00:11:25.662Z,21.17
2023-10-23T00:11:57.595Z,22.27
2023-10-23T00:12:29.571Z,21.60
2023-10-23T00:13:02.552Z,21.57
2023-10-23T00:13:34.461Z,21.80
2023-10-23T00:14:06.412Z,21.50
2023-10-23T00:14:38.506Z,21.90
2023-10-23T00:15:10.838Z,21.37
2023-10-23T00:15:43.700Z,21.40
2023-10-23T00:16:15.784Z,21.10
2023-10-23T00:16:47.740Z,20.10
2023-10-23T00:17:19.769Z,20.63
2023-10-23T00:17:51.945Z,20.80
2023-10-23T00:18:23.967Z,21.57
2023-10-23T00:18:56.096Z,21.30
2023-10-23T00:19:28.939Z,20.13
2023-10-23T00:20:03.455Z,21.80
2023-10-23T00:20:35.494Z,21.87
2023-10-23T00:21:08.913Z,20.20
2023-10-23T00:21:41.053Z,20.60
2023-10-23T00:22:13.075Z,20.77
2023-10-23T00:22:45.073Z,21.80
2023-10-23T00:23:19.822Z,21.90
2023-10-23T00:23:51.746Z,21.90
2023-10-23T00:24:24.281Z,21.70
2023-10-23T00:24:58.145Z,21.07
2023-10-23T00:25:30.210Z,20.33
2023-10-23T00:26:02.127Z,20.53
2023-10-23T00:26:34.035Z,21.53
2023-10-23T00:27:06.222Z,21.10
2023-10-23T00:27:38.200Z,21.43
2023-10-23T00:28:10.172Z,19.83
2023-10-23T00:28:42.380Z,20.57
2023-10-23T00:29:14.325Z,20.20
2023-10-23T00:29:46.263Z,20.13
2023-10-23T00:30:18.250Z,21.43
2023-10-23T00:30:50.257Z,21.70
2023-10-23T00:31:22.274Z,21.17
2023-10-23T00:31:54.268Z,20.00
2023-10-23T00:32:26.269Z,21.27
2023-10-23T00:32:58.342Z,21.43
2023-10-23T00:33:30.539Z,21.20
2023-10-23T00:34:02.633Z,21.07
2023-10-23T00:34:34.569Z,20.90
2023-10-23T00:35:07.057Z,20.90
2023-10-23T00:35:38.987Z,21.40
2023-10-23T00:36:10.912Z,20.43
2023-10-23T00:36:42.872Z,20.83
2023-10-23T00:37:14.809Z,20.80
2023-10-23T00:37:47.278Z,21.37
2023-10-23T00:38:19.245Z,21.93
2023-10-23T00:38:51.218Z,22.10
2023-10-23T00:39:23.187Z,20.53
2023-10-23T00:39:55.244Z,20.10
2023-10-23T00:40:27.195Z,20.27
2023-10-23T00:40:59.134Z,19.73
2023-10-23T00:41:31.030Z,20.93
2023-10-23T00:42:02.983Z,21.03
2023-10-23T00:42:34.981Z,20.20
2023-10-23T00:43:23.679Z,19.57
2023-10-23T00:43:55.614Z,20.60
2023-10-23T00:44:29.066Z,20.00
2023-10-23T00:45:01.002Z,20.67
2023-10-23T00:45:33.057Z,19.73
2023-10-23T00:46:13.068Z,20.63
2023-10-23T00:46:45.517Z,19.60
2023-10-23T00:47:22.588Z,19.20
2023-10-23T00:47:54.569Z,19.23
2023-10-23T00:48:27.920Z,19.50
2023-10-23T00:49:01.152Z,20.10
2023-10-23T00:49:33.910Z,21.40
2023-10-23T00:50:06.039Z,20.93
2023-10-23T00:50:38.122Z,19.67
2023-10-23T00:51:12.652Z,19.97
2023-10-23T00:51:44.860Z,20.83
2023-10-23T00:52:16.880Z,21.37
2023-10-23T00:52:48.957Z,21.00
2023-10-23T00:53:23.966Z,20.60
2023-10-23T00:53:56.864Z,19.90
2023-10-23T00:54:29.102Z,19.63
2023-10-23T00:55:01.203Z,20.27
2023-10-23T00:55:33.232Z,25.40
2023-10-23T00:56:07.643Z,30.87
2023-10-23T00:56:39.801Z,27.30
2023-10-23T00:57:11.732Z,26.17
2023-10-23T00:57:43.717Z,26.30
2023-10-23T00:58:16.461Z,24.57
2023-10-23T00:58:48.400Z,24.87
2023-10-23T00:59:21.031Z,24.57
2023-10-23T00:59:52.980Z,24.40
2023-10-23T01:00:25.012Z,25.13
2023-10-23T01:00:58.838Z,24.33
2023-10-23T01:01:33.491Z,23.60
2023-10-23T01:02:05.873Z,23.83
2023-10-23T01:02:38.915Z,22.93
2023-10-23T01:03:11.139Z,21.47
2023-10-23T01:03:44.509Z,20.47
2023-10-23T01:04:17.585Z,20.47
2023-10-23T01:04:50.148Z,20.67
2023-10-23T01:05:22.064Z,20.73
2023-10-23T01:05:53.982Z,19.57
2023-10-23T01:06:25.933Z,20.10
2023-10-23T01:06:57.848Z,19.33
2023-10-23T01:07:29.840Z,19.40
2023-10-23T01:08:01.756Z,20.37
2023-10-23T01:08:34.081Z,21.23
2023-10-23T01:09:06.752Z,20.77
2023-10-23T01:09:39.003Z,19.60
2023-10-23T01:10:11.190Z,19.83
2023-10-23T01:10:43.445Z,19.93
2023-10-23T01:11:15.493Z,20.03
2023-10-23T01:11:47.539Z,19.93
2023-10-23T01:12:19.476Z,20.10
2023-10-23T01:12:54.949Z,19.70
2023-10-23T01:13:27.951Z,20.33
2023-10-23T01:13:59.886Z,20.37
2023-10-23T01:14:31.912Z,20.17
2023-10-23T01:15:04.225Z,19.23
2023-10-23T01:15:36.187Z,19.40
2023-10-23T01:16:08.566Z,20.20
2023-10-23T01:16:40.629Z,20.17
2023-10-23T01:17:12.644Z,19.70
2023-10-23T01:17:44.580Z,18.50
2023-10-23T01:18:16.566Z,19.40
2023-10-23T01:18:48.596Z,20.00
2023-10-23T01:19:20.551Z,19.70
2023-10-23T01:19:52.540Z,20.53
2023-10-23T01:20:24.938Z,20.47
2023-10-23T01:20:56.869Z,20.13
2023-10-23T01:21:28.872Z,19.60
2023-10-23T01:22:00.805Z,20.07
2023-10-23T01:22:32.734Z,19.43
2023-10-23T01:23:04.691Z,18.70
2023-10-23T01:23:37.683Z,19.80
2023-10-23T01:24:10.766Z,19.60
2023-10-23T01:24:44.850Z,19.10
2023-10-23T01:25:17.619Z,20.37
2023-10-23T01:25:49.537Z,19.53
2023-10-23T01:26:21.457Z,19.20
2023-10-23T01:26:53.444Z,19.73
2023-10-23T01:27:25.383Z,19.00
2023-10-23T01:27:57.375Z,18.90
2023-10-23T01:28:29.489Z,20.13
2023-10-23T01:29:01.395Z,19.27
2023-10-23T01:29:33.313Z,19.10
2023-10-23T01:30:05.790Z,19.43
2023-10-23T01:30:37.771Z,19.67
2023-10-23T01:31:09.860Z,19.67
2023-10-23T01:31:41.859Z,19.17
2023-10-23T01:32:13.888Z,19.37
2023-10-23T01:32:46.228Z,20.20
2023-10-23T01:33:18.201Z,19.30
2023-10-23T01:33:50.208Z,18.77
2023-10-23T01:34:22.266Z,18.13
2023-10-23T01:34:54.183Z,19.50
2023-10-23T01:35:26.449Z,19.60
2023-10-23T01:35:58.382Z,19.23
2023-10-23T01:36:30.466Z,19.20
2023-10-23T01:37:02.443Z,19.57
2023-10-23T01:37:34.349Z,19.37
2023-10-23T01:38:06.279Z,18.60
2023-10-23T01:38:38.245Z,19.37
2023-10-23T01:39:10.191Z,19.70
2023-10-23T01:39:42.200Z,19.43
2023-10-23T01:40:14.769Z,20.27
2023-10-23T01:40:46.816Z,19.27
2023-10-23T01:41:18.798Z,19.43
2023-10-23T01:41:50.698Z,20.07
2023-10-23T01:42:22.637Z,19.37
2023-10-23T01:42:54.666Z,19.03
2023-10-23T01:43:26.618Z,19.30
2023-10-23T01:43:58.587Z,19.90
2023-10-23T01:44:30.530Z,18.80
2023-10-23T01:45:02.673Z,18.80
2023-10-23T01:45:34.629Z,19.53
2023-10-23T01:46:06.595Z,19.80
2023-10-23T01:46:38.581Z,20.33
2023-10-23T01:47:10.551Z,20.40
2023-10-23T01:47:42.481Z,20.73
2023-10-23T01:48:14.471Z,19.47
2023-10-23T01:48:46.503Z,20.83
2023-10-23T01:49:18.427Z,19.30
2023-10-23T01:49:50.551Z,20.70
2023-10-23T01:50:22.543Z,19.93
2023-10-23T01:50:54.659Z,20.33
2023-10-23T01:51:27.401Z,20.93
2023-10-23T01:51:59.507Z,19.83
2023-10-23T01:52:31.424Z,19.17
2023-10-23T01:53:03.538Z,20.07
2023-10-23T01:53:35.455Z,19.63
2023-10-23T01:54:07.498Z,19.07
2023-10-23T01:54:39.603Z,19.13
2023-10-23T01:55:12.331Z,20.37
2023-10-23T01:55:44.321Z,19.70
2023-10-23T01:56:16.260Z,19.77
2023-10-23T01:56:48.528Z,20.87
2023-10-23T01:57:20.896Z,20.07
2023-10-23T01:57:52.920Z,19.73
2023-10-23T01:58:24.917Z,20.17
2023-10-23T01:58:56.819Z,20.57
2023-10-23T01:59:28.741Z,20.00
2023-10-23T02:00:05.889Z,19.83
2023-10-23T02:00:37.921Z,20.17
2023-10-23T02:01:20.418Z,20.97
2023-10-23T02:01:52.405Z,19.70
2023-10-23T02:02:24.322Z,19.67
2023-10-23T02:02:57.334Z,20.07
2023-10-23T02:03:31.565Z,20.73
2023-10-23T02:04:03.685Z,20.70
2023-10-23T02:04:36.744Z,20.27
2023-10-23T02:05:09.031Z,19.90
2023-10-23T02:05:40.947Z,19.33
2023-10-23T02:06:12.870Z,19.77
2023-10-23T02:06:44.933Z,20.60
2023-10-23T02:07:16.944Z,20.03
2023-10-23T02:07:48.866Z,19.70
2023-10-23T02:08:25.303Z,19.83
2023-10-23T02:08:57.313Z,19.27
2023-10-23T02:09:29.596Z,19.77
2023-10-23T02:10:01.748Z,20.10
2023-10-23T02:10:33.690Z,19.30
2023-10-23T02:11:05.610Z,20.40
2023-10-23T02:11:38.465Z,19.63
2023-10-23T02:12:10.427Z,19.27
2023-10-23T02:12:42.474Z,20.10
2023-10-23T02:13:14.422Z,20.07
2023-10-23T02:13:46.340Z,19.83
2023-10-23T02:14:18.281Z,19.47
2023-10-23T02:14:51.809Z,18.50
2023-10-23T02:15:23.811Z,19.17
2023-10-23T02:15:55.783Z,19.50
2023-10-23T02:16:27.816Z,18.93
2023-10-23T02:16:59.728Z,19.10
2023-10-23T02:17:31.914Z,19.23
2023-10-23T02:18:04.457Z,18.00
2023-10-23T02:18:36.646Z,19.30
2023-10-23T02:19:10.160Z,18.93
2023-10-23T02:19:42.104Z,18.50
2023-10-23T02:20:14.039Z,18.70
2023-10-23T02:20:45.972Z,19.17
2023-10-23T02:21:17.978Z,18.90
2023-10-23T02:21:52.844Z,18.33
2023-10-23T02:22:24.972Z,19.03
2023-10-23T02:22:56.874Z,19.70
2023-10-23T02:23:37.945Z,18.60
2023-10-23T02:24:23.388Z,18.80
2023-10-23T02:24:55.393Z,18.47
2023-10-23T02:25:27.350Z,18.53
2023-10-23T02:25:59.764Z,18.50
2023-10-23T02:26:31.695Z,18.80
2023-10-23T02:27:04.222Z,18.47
2023-10-23T02:27:36.160Z,18.67
2023-10-23T02:28:08.127Z,19.17
2023-10-23T02:28:40.165Z,19.20
2023-10-23T02:29:12.138Z,19.20
2023-10-23T02:29:44.140Z,19.07
2023-10-23T02:30:16.088Z,19.00
2023-10-23T02:30:48.110Z,18.87
2023-10-23T02:31:20.898Z,19.07
2023-10-23T02:31:52.900Z,18.37
2023-10-23T02:32:24.853Z,17.23
2023-10-23T02:32:57.120Z,18.20
2023-10-23T02:33:29.100Z,17.47
2023-10-23T02:34:01.175Z,18.10
2023-10-23T02:34:34.349Z,19.20
2023-10-23T02:35:06.623Z,18.63
2023-10-23T02:35:38.892Z,19.10
2023-10-23T02:36:10.805Z,18.93
2023-10-23T02:36:43.624Z,18.00
2023-10-23T02:37:15.712Z,18.10
2023-10-23T02:37:48.590Z,17.93
2023-10-23T02:38:20.506Z,18.57
2023-10-23T02:38:53.250Z,19.27
2023-10-23T02:39:25.615Z,18.27
2023-10-23T02:39:58.314Z,18.03
2023-10-23T02:40:31.504Z,18.33
2023-10-23T02:41:03.411Z,17.97
2023-10-23T02:41:35.326Z,19.00
2023-10-23T02:42:07.243Z,18.23
2023-10-23T02:42:39.177Z,17.73
2023-10-23T02:43:11.199Z,16.37
2023-10-23T02:43:43.125Z,17.07
2023-10-23T02:44:15.438Z,17.83
2023-10-23T02:44:47.408Z,18.27
2023-10-23T02:45:19.468Z,17.80
2023-10-23T02:45:51.688Z,17.47
2023-10-23T02:46:24.153Z,17.73
2023-10-23T02:46:56.103Z,17.97
2023-10-23T02:47:28.082Z,17.40
2023-10-23T02:48:00.046Z,17.63
2023-10-23T02:48:32.321Z,17.70
2023-10-23T02:49:04.494Z,18.03
2023-10-23T02:49:36.421Z,17.97
2023-10-23T02:50:08.669Z,17.10
2023-10-23T02:50:40.740Z,17.47
2023-10-23T02:51:12.659Z,17.80
2023-10-23T02:51:45.237Z,17.10
2023-10-23T02:52:17.365Z,17.47
2023-10-23T02:52:49.292Z,17.50
2023-10-23T02:53:22.167Z,18.87
2023-10-23T02:53:54.070Z,18.13
2023-10-23T02:54:26.020Z,17.57
2023-10-23T02:54:58.055Z,17.27
2023-10-23T02:55:30.098Z,17.77
2023-10-23T02:56:02.123Z,17.90
2023-10-23T02:56:34.715Z,17.83
2023-10-23T02:57:07.441Z,17.50
2023-10-23T02:57:39.593Z,17.03
2023-10-23T02:58:11.558Z,18.40
2023-10-23T02:58:43.506Z,18.63
2023-10-23T02:59:15.405Z,18.13
2023-10-23T02:59:50.094Z,16.93
2023-10-23T03:00:22.810Z,17.47
2023-10-23T03:00:54.814Z,16.97
2023-10-23T03:01:26.929Z,17.90
2023-10-23T03:01:58.923Z,17.90
2023-10-23T03:02:30.903Z,17.93
2023-10-23T03:03:03.034Z,17.40
2023-10-23T03:03:35.088Z,16.87
2023-10-23T03:04:07.777Z,16.97
2023-10-23T03:04:39.891Z,17.10
2023-10-23T03:05:12.426Z,16.70
2023-10-23T03:05:44.344Z,17.10
2023-10-23T03:06:16.402Z,16.70
2023-10-23T03:06:48.863Z,17.07
2023-10-23T03:07:20.786Z,17.17
2023-10-23T03:07:52.703Z,16.43
2023-10-23T03:08:24.638Z,16.73
2023-10-23T03:08:56.532Z,17.17
2023-10-23T03:09:28.473Z,16.63
2023-10-23T03:10:00.449Z,16.87
2023-10-23T03:10:32.891Z,17.23
2023-10-23T03:11:05.272Z,17.40
2023-10-23T03:11:37.208Z,17.03
2023-10-23T03:12:09.187Z,16.77
2023-10-23T03:12:41.170Z,16.13
2023-10-23T03:13:13.112Z,16.67
2023-10-23T03:13:45.057Z,16.03
2023-10-23T03:14:16.947Z,16.50
2023-10-23T03:14:49.006Z,16.57
2023-10-23T03:15:20.962Z,17.77
2023-10-23T03:15:54.120Z,16.83
2023-10-23T03:16:26.898Z,17.40
2023-10-23T03:16:59.180Z,17.53
2023-10-23T03:17:31.765Z,17.67
2023-10-23T03:18:05.381Z,16.87
2023-10-23T03:18:37.329Z,17.70
2023-10-23T03:19:09.272Z,16.80
2023-10-23T03:19:41.193Z,17.50
2023-10-23T03:20:13.217Z,16.50
2023-10-23T03:20:45.150Z,16.90
2023-10-23T03:21:17.069Z,17.73
2023-10-23T03:21:49.054Z,17.27
2023-10-23T03:22:20.988Z,16.63
2023-10-23T03:22:52.913Z,17.13
2023-10-23T03:23:24.879Z,17.10
2023-10-23T03:23:56.851Z,17.03
2023-10-23T03:24:28.901Z,17.17
2023-10-23T03:25:01.046Z,17.13
2023-10-23T03:25:33.009Z,17.00
2023-10-23T03:26:05.026Z,17.20
2023-10-23T03:26:36.977Z,17.10
2023-10-23T03:27:08.871Z,16.70
2023-10-23T03:27:40.965Z,17.43
2023-10-23T03:28:12.982Z,16.80
2023-10-23T03:28:44.900Z,16.27
2023-10-23T03:29:16.806Z,17.17
2023-10-23T03:29:48.716Z,17.87
2023-10-23T03:30:20.639Z,17.63
2023-10-23T03:30:52.870Z,17.63
2023-10-23T03:31:24.907Z,16.60
2023-10-23T03:31:56.937Z,16.90
2023-10-23T03:32:28.920Z,16.43
2023-10-23T03:33:00.846Z,16.87
2023-10-23T03:33:33.877Z,16.83
2023-10-23T03:34:06.004Z,16.13
2023-10-23T03:34:37.913Z,16.97
2023-10-23T03:35:09.869Z,16.30
2023-10-23T03:35:45.043Z,17.37
2023-10-23T03:36:17.463Z,16.83
2023-10-23T03:36:49.474Z,16.93
2023-10-23T03:37:21.415Z,17.67
2023-10-23T03:37:53.345Z,17.53
2023-10-23T03:38:25.306Z,17.17
2023-10-23T03:38:57.243Z,16.60
2023-10-23T03:39:29.333Z,15.73
2023-10-23T03:40:01.305Z,16.83
2023-10-23T03:40:33.251Z,16.60
2023-10-23T03:41:05.859Z,16.10
2023-10-23T03:41:37.781Z,17.27
2023-10-23T03:42:09.700Z,16.67
2023-10-23T03:42:41.664Z,17.07
2023-10-23T03:43:13.623Z,16.07
2023-10-23T03:43:45.523Z,16.50
2023-10-23T03:44:17.452Z,16.53
2023-10-23T03:44:50.339Z,16.97
2023-10-23T03:45:22.310Z,16.10
2023-10-23T03:45:54.416Z,16.00
2023-10-23T03:46:26.534Z,15.93
2023-10-23T03:46:58.598Z,15.70
2023-10-23T03:47:30.583Z,15.73
2023-10-23T03:48:02.603Z,15.93
2023-10-23T03:48:37.640Z,16.03
2023-10-23T03:49:09.587Z,16.03
2023-10-23T03:49:41.496Z,16.33
2023-10-23T03:50:13.425Z,16.03
2023-10-23T03:50:45.487Z,16.60
2023-10-23T03:51:17.412Z,16.43
2023-10-23T03:51:49.345Z,16.03
2023-10-23T03:52:21.307Z,16.00
2023-10-23T03:52:53.229Z,15.60
2023-10-23T03:53:25.139Z,15.53
2023-10-23T03:53:57.045Z,16.30
2023-10-23T03:54:29.075Z,16.67
2023-10-23T03:55:01.027Z,15.87
2023-10-23T03:55:40.141Z,16.63
2023-10-23T03:56:12.630Z,16.10
2023-10-23T03:56:44.537Z,16.73
2023-10-23T03:57:16.445Z,15.53
2023-10-23T03:57:48.995Z,15.40
2023-10-23T03:58:21.016Z,16.00
2023-10-23T03:58:53.653Z,17.23
2023-10-23T03:59:25.564Z,16.37
2023-10-23T03:59:57.471Z,16.70
2023-10-23T04:00:30.824Z,15.97
2023-10-23T04:01:04.115Z,15.27
2023-10-23T04:01:36.172Z,16.07
2023-10-23T04:02:08.315Z,15.47
2023-10-23T04:02:40.238Z,15.50
2023-10-23T04:03:15.105Z,16.23
2023-10-23T04:03:47.113Z,18.00
2023-10-23T04:04:19.269Z,16.93
2023-10-23T04:04:51.295Z,16.93
2023-10-23T04:05:23.258Z,16.43
2023-10-23T04:05:55.320Z,15.93
2023-10-23T04:06:27.269Z,15.60
2023-10-23T04:06:59.233Z,16.33
2023-10-23T04:07:31.193Z,16.47
2023-10-23T04:08:03.117Z,16.50
2023-10-23T04:08:35.083Z,16.00
2023-10-23T04:09:07.952Z,15.33
2023-10-23T04:09:40.192Z,16.37
2023-10-23T04:10:15.040Z,15.40
2023-10-23T04:10:50.193Z,15.87
2023-10-23T04:11:23.025Z,16.33
2023-10-23T04:11:56.112Z,15.97
2023-10-23T04:12:28.156Z,15.80
2023-10-23T04:13:00.186Z,14.57
2023-10-23T04:13:34.934Z,14.53
2023-10-23T04:14:06.851Z,15.87
2023-10-23T04:14:38.786Z,16.13
2023-10-23T04:15:10.987Z,15.23
2023-10-23T04:15:55.600Z,15.63
2023-10-23T04:16:27.734Z,15.43
2023-10-23T04:16:59.665Z,16.00
2023-10-23T04:17:31.924Z,15.77
2023-10-23T04:18:04.063Z,15.83
2023-10-23T04:18:36.285Z,16.97
2023-10-23T04:19:08.208Z,16.63
2023-10-23T04:19:40.627Z,17.40
2023-10-23T04:20:12.622Z,18.23
2023-10-23T04:20:44.555Z,18.37
2023-10-23T04:21:16.461Z,17.97
2023-10-23T04:21:48.420Z,18.33
2023-10-23T04:22:20.396Z,18.97
2023-10-23T04:22:52.308Z,18.50
2023-10-23T04:23:24.226Z,19.40
2023-10-23T04:23:56.135Z,18.57
2023-10-23T04:24:28.152Z,18.80
2023-10-23T04:25:00.163Z,17.70
2023-10-23T04:25:32.220Z,16.50
2023-10-23T04:26:04.682Z,16.97
2023-10-23T04:26:38.528Z,16.63
2023-10-23T04:27:10.686Z,15.87
2023-10-23T04:27:42.683Z,15.13
2023-10-23T04:28:14.646Z,16.13
2023-10-23T04:28:46.613Z,15.37
2023-10-23T04:29:18.540Z,15.93
2023-10-23T04:29:50.463Z,15.60
2023-10-23T04:30:22.534Z,15.30
2023-10-23T04:30:56.621Z,15.77
2023-10-23T04:31:28.860Z,16.63
2023-10-23T04:32:00.952Z,16.97
2023-10-23T04:32:33.238Z,18.10
2023-10-23T04:33:05.226Z,15.90
2023-10-23T04:33:37.154Z,15.87
2023-10-23T04:34:09.084Z,16.90
2023-10-23T04:34:40.991Z,16.80
2023-10-23T04:35:12.912Z,16.37
2023-10-23T04:35:46.539Z,17.07
2023-10-23T04:36:19.088Z,16.53
2023-10-23T04:36:51.058Z,16.87
2023-10-23T04:37:23.373Z,18.23
2023-10-23T04:37:55.274Z,19.07
2023-10-23T04:38:27.409Z,17.87
2023-10-23T04:38:59.316Z,16.67
2023-10-23T04:39:31.268Z,16.53
2023-10-23T04:40:03.275Z,16.43
2023-10-23T04:40:35.380Z,16.83
2023-10-23T04:41:07.392Z,18.17
2023-10-23T04:41:39.305Z,18.60
2023-10-23T04:42:11.260Z,19.57
2023-10-23T04:42:43.498Z,20.40
2023-10-23T04:43:15.748Z,21.30
2023-10-23T04:43:47.679Z,20.87
2023-10-23T04:44:21.001Z,21.07
2023-10-23T04:44:53.001Z,21.70
2023-10-23T04:45:24.909Z,21.93
2023-10-23T04:45:58.380Z,22.07
2023-10-23T04:46:30.607Z,22.30
2023-10-23T04:47:03.141Z,22.50
2023-10-23T04:47:35.168Z,22.60
2023-10-23T04:48:07.774Z,22.43
2023-10-23T04:48:39.771Z,22.47
2023-10-23T04:49:11.847Z,20.60
2023-10-23T04:49:43.752Z,21.37
2023-10-23T04:50:15.699Z,20.37
2023-10-23T04:50:47.772Z,19.97
2023-10-23T04:51:19.739Z,20.20
2023-10-23T04:51:51.735Z,18.67
2023-10-23T04:52:24.403Z,18.57
2023-10-23T04:52:56.316Z,19.77
2023-10-23T04:53:28.454Z,20.10
2023-10-23T04:54:00.351Z,18.63
2023-10-23T04:54:32.310Z,18.63
2023-10-23T04:55:04.643Z,18.67
2023-10-23T04:55:39.866Z,17.63
2023-10-23T04:56:11.765Z,17.10
2023-10-23T04:56:43.859Z,17.87
2023-10-23T04:57:15.792Z,18.60
2023-10-23T04:57:47.808Z,19.77
2023-10-23T04:58:19.900Z,19.20
2023-10-23T04:58:51.861Z,19.00
2023-10-23T04:59:23.801Z,18.53
2023-10-23T04:59:55.752Z,19.37
2023-10-23T05:00:28.509Z,19.37
2023-10-23T05:01:02.404Z,18.80
2023-10-23T05:01:34.569Z,19.67
2023-10-23T05:02:06.621Z,19.53
2023-10-23T05:02:38.565Z,20.00
2023-10-23T05:03:10.536Z,19.43
2023-10-23T05:03:42.501Z,20.07
2023-10-23T05:04:14.540Z,19.93
2023-10-23T05:04:46.762Z,19.93
2023-10-23T05:05:18.732Z,20.67
2023-10-23T05:05:50.867Z,20.83
2023-10-23T05:06:27.462Z,21.17
2023-10-23T05:07:00.403Z,20.57
2023-10-23T05:07:32.427Z,20.83
2023-10-23T05:08:05.255Z,20.97
2023-10-23T05:08:37.156Z,21.73
2023-10-23T05:09:09.499Z,20.93
2023-10-23T05:09:41.576Z,20.90
2023-10-23T05:10:13.939Z,20.90
2023-10-23T05:10:46.591Z,20.23
2023-10-23T05:11:18.526Z,20.33
2023-10-23T05:11:50.541Z,20.83
2023-10-23T05:12:22.498Z,20.80
2023-10-23T05:12:54.893Z,19.97
2023-10-23T05:13:26.945Z,20.07
2023-10-23T05:13:58.870Z,19.93
2023-10-23T05:14:30.994Z,18.63
2023-10-23T05:15:03.872Z,19.00
2023-10-23T05:15:35.845Z,18.37
2023-10-23T05:16:08.281Z,17.47
2023-10-23T05:16:40.318Z,17.57
2023-10-23T05:17:12.269Z,17.63
2023-10-23T05:17:44.767Z,17.40
2023-10-23T05:18:16.722Z,17.90
2023-10-23T05:18:48.941Z,18.10
2023-10-23T05:19:20.927Z,17.87
2023-10-23T05:19:52.894Z,18.07
2023-10-23T05:20:25.682Z,17.90
2023-10-23T05:20:57.650Z,18.17
2023-10-23T05:21:29.591Z,18.40
2023-10-23T05:22:01.574Z,19.30
2023-10-23T05:22:33.507Z,18.67
2023-10-23T05:23:05.450Z,18.37
2023-10-23T05:23:38.254Z,18.23
2023-10-23T05:24:10.176Z,19.13
2023-10-23T05:24:48.769Z,18.20
2023-10-23T05:25:20.807Z,18.33
2023-10-23T05:25:52.701Z,18.47
2023-10-23T05:26:24.616Z,18.37
2023-10-23T05:26:56.518Z,17.63
2023-10-23T05:27:28.494Z,17.80
2023-10-23T05:28:00.497Z,18.30
2023-10-23T05:28:33.128Z,17.97
2023-10-23T05:29:05.060Z,17.07
2023-10-23T05:29:37.335Z,16.53
2023-10-23T05:30:09.468Z,17.00
2023-10-23T05:30:41.900Z,16.70
2023-10-23T05:31:13.980Z,16.83
2023-10-23T05:31:45.993Z,16.97
2023-10-23T05:32:18.146Z,15.93
2023-10-23T05:32:50.139Z,15.93
2023-10-23T05:33:22.112Z,16.23
2023-10-23T05:33:54.042Z,15.00
2023-10-23T05:34:26.030Z,14.10
2023-10-23T05:34:58.006Z,14.73
2023-10-23T05:35:29.966Z,14.43
2023-10-23T05:36:04.697Z,14.57
2023-10-23T05:36:36.763Z,15.20
2023-10-23T05:37:08.767Z,14.63
2023-10-23T05:37:40.732Z,14.13
2023-10-23T05:38:12.725Z,14.57
2023-10-23T05:38:44.699Z,14.47
2023-10-23T05:39:16.729Z,15.27
2023-10-23T05:39:48.692Z,14.33
2023-10-23T05:40:20.685Z,14.03
2023-10-23T05:40:57.439Z,14.67
2023-10-23T05:41:29.381Z,14.57
2023-10-23T05:42:01.379Z,12.93
2023-10-23T05:42:33.368Z,13.40
2023-10-23T05:43:05.650Z,13.67
2023-10-23T05:43:37.816Z,13.80
2023-10-23T05:44:09.740Z,14.20
2023-10-23T05:44:41.641Z,13.43
2023-10-23T05:45:13.563Z,13.57
2023-10-23T05:45:46.695Z,12.93
2023-10-23T05:46:22.398Z,12.33
2023-10-23T05:46:54.959Z,12.60
2023-10-23T05:47:27.300Z,12.03
2023-10-23T05:47:59.344Z,11.10
2023-10-23T05:48:32.223Z,11.40
2023-10-23T05:49:04.202Z,11.57
2023-10-23T05:49:36.139Z,11.93
2023-10-23T05:50:08.245Z,13.07
2023-10-23T05:50:40.312Z,12.10
2023-10-23T05:51:12.236Z,11.70
2023-10-23T05:51:44.183Z,11.00
2023-10-23T05:52:16.126Z,11.37
2023-10-23T05:52:48.650Z,11.33
2023-10-23T05:53:20.679Z,11.33
2023-10-23T05:53:52.657Z,11.90
2023-10-23T05:54:26.033Z,11.93
2023-10-23T05:54:58.469Z,11.30
2023-10-23T05:55:35.908Z,11.80
2023-10-23T05:56:08.219Z,11.30
2023-10-23T05:56:40.163Z,11.67
2023-10-23T05:57:12.087Z,11.20
2023-10-23T05:57:44.100Z,11.47
2023-10-23T05:58:16.037Z,10.87
2023-10-23T05:58:48.561Z,10.80
2023-10-23T05:59:20.507Z,10.60
2023-10-23T05:59:52.442Z,11.30
2023-10-23T06:00:24.409Z,10.77
2023-10-23T06:00:56.480Z,11.17
2023-10-23T06:01:28.533Z,11.03
2023-10-23T06:02:00.464Z,10.87
2023-10-23T06:02:32.453Z,10.50
2023-10-23T06:03:04.418Z,10.83
2023-10-23T06:03:36.540Z,11.37
2023-10-23T06:04:08.778Z,11.23
2023-10-23T06:04:44.293Z,10.63
2023-10-23T06:05:16.394Z,11.27
2023-10-23T06:05:48.319Z,12.07
2023-10-23T06:06:20.248Z,11.83
2023-10-23T06:06:52.266Z,11.37
2023-10-23T06:07:24.412Z,11.80
2023-10-23T06:07:56.440Z,11.87
2023-10-23T06:08:28.353Z,11.53
2023-10-23T06:09:00.898Z,12.07
2023-10-23T06:09:32.894Z,12.50
2023-10-23T06:10:05.283Z,11.83
2023-10-23T06:10:46.827Z,12.00
2023-10-23T06:11:18.790Z,11.37
2023-10-23T06:11:50.706Z,11.83
2023-10-23T06:12:22.612Z,11.67
2023-10-23T06:12:54.542Z,11.37
2023-10-23T06:13:26.460Z,12.00
2023-10-23T06:13:58.428Z,11.60
2023-10-23T06:14:30.378Z,11.27
2023-10-23T06:15:02.289Z,11.30
2023-10-23T06:15:34.205Z,12.20
2023-10-23T06:16:07.670Z,12.37
2023-10-23T06:16:39.820Z,11.43
2023-10-23T06:17:11.788Z,11.20
2023-10-23T06:17:43.738Z,10.83
2023-10-23T06:18:15.682Z,11.20
2023-10-23T06:18:47.630Z,10.93
2023-10-23T06:19:19.614Z,10.63
2023-10-23T06:19:51.653Z,11.23
2023-10-23T06:20:23.580Z,10.97
2023-10-23T06:21:01.034Z,12.07
2023-10-23T06:21:33.203Z,11.10
2023-10-23T06:22:05.263Z,10.67
2023-10-23T06:22:37.538Z,10.87
2023-10-23T06:23:09.467Z,10.47
2023-10-23T06:23:41.820Z,10.80
2023-10-23T06:24:13.723Z,10.87
2023-10-23T06:24:48.657Z,11.00
2023-10-23T06:25:20.713Z,11.67
2023-10-23T06:25:58.651Z,11.50
2023-10-23T06:26:30.562Z,11.53
2023-10-23T06:27:02.486Z,10.80
2023-10-23T06:27:34.486Z,10.67
2023-10-23T06:28:06.478Z,12.07
2023-10-23T06:28:38.937Z,13.23
2023-10-23T06:29:10.867Z,13.27
2023-10-23T06:29:42.775Z,12.47
2023-10-23T06:30:14.890Z,11.87
2023-10-23T06:30:46.806Z,11.83
2023-10-23T06:31:18.747Z,12.33
2023-10-23T06:31:50.711Z,12.37
2023-10-23T06:32:22.689Z,12.33
2023-10-23T06:32:54.718Z,12.37
2023-10-23T06:33:26.660Z,12.93
2023-10-23T06:33:58.613Z,12.70
2023-10-23T06:34:30.587Z,12.80
2023-10-23T06:35:02.660Z,12.70
2023-10-23T06:35:34.580Z,12.23
2023-10-23T06:36:10.432Z,12.33
2023-10-23T06:36:44.111Z,13.00
2023-10-23T06:37:18.208Z,12.97
2023-10-23T06:37:51.421Z,12.37
2023-10-23T06:38:23.519Z,13.23
2023-10-23T06:38:55.570Z,12.70
2023-10-23T06:39:27.485Z,13.03
2023-10-23T06:39:59.424Z,13.27
2023-10-23T06:40:31.370Z,13.10
2023-10-23T06:41:06.094Z,12.90
2023-10-23T06:41:38.167Z,12.47
2023-10-23T06:42:10.100Z,12.87
2023-10-23T06:42:42.137Z,13.53
2023-10-23T06:43:14.061Z,12.93
2023-10-23T06:43:46.448Z,12.67
2023-10-23T06:44:20.465Z,12.37
2023-10-23T06:44:52.511Z,12.53
2023-10-23T06:45:25.988Z,11.63
2023-10-23T06:46:06.063Z,13.43
2023-10-23T06:46:38.158Z,12.93
2023-10-23T06:47:11.664Z,13.60
2023-10-23T06:47:43.676Z,12.60
2023-10-23T06:48:16.991Z,13.07
2023-10-23T06:48:49.069Z,13.20
2023-10-23T06:49:21.019Z,13.47
2023-10-23T06:49:52.963Z,13.53
2023-10-23T06:50:25.118Z,13.60
2023-10-23T06:50:57.168Z,13.67
2023-10-23T06:51:29.110Z,13.63
2023-10-23T06:52:01.042Z,14.17
2023-10-23T06:52:33.624Z,13.67
2023-10-23T06:53:05.559Z,14.60
2023-10-23T06:53:37.475Z,14.90
2023-10-23T06:54:09.437Z,13.83
2023-10-23T06:54:41.423Z,14.57
2023-10-23T06:55:13.727Z,14.23
2023-10-23T06:55:52.924Z,14.23
2023-10-23T06:56:26.032Z,13.93
2023-10-23T06:56:58.047Z,13.60
2023-10-23T06:57:30.033Z,13.77
2023-10-23T06:58:02.004Z,14.23